Time;durP1;ratioP1;P1;durP2;ratioP2;P2;SDS_P1;SDS_P2;PMS_P1;PMS_P2;Temp;Humidity;BMP_temperature;BMP_pressure;BME280_temperature;BME280_humidity;BME280_pressure;Samples;Min_cycle;Max_cycle;Signal;HPM_P1;HPM_P2
2023/03/16 00:01:25;;;;;;;20.02;12.65;;;19.10;99.90;;;;;;4589634;19;20007;-29
2023/03/16 00:02:57;;;;;;;19.75;13.13;;;19.10;99.90;;;;;;4588290;19;20015;-30
2023/03/16 00:04:30;;;;;;;20.27;13.77;;;19.10;99.90;;;;;;4589389;19;20086;-32
2023/03/16 00:06:02;;;;;;;20.77;13.85;;;19.10;99.90;;;;;;4589671;19;20014;-32
2023/03/16 00:07:35;;;;;;;19.60;12.95;;;19.10;99.90;;;;;;4589776;19;20013;-30
2023/03/16 00:09:08;;;;;;;21.73;13.88;;;19.10;99.90;;;;;;4588600;19;20022;-32
2023/03/16 00:10:45;;;;;;;20.83;13.65;;;19.10;99.90;;;;;;4589324;19;20026;-34
2023/03/16 00:12:17;;;;;;;21.58;14.07;;;19.10;99.90;;;;;;4588469;19;20078;-30
2023/03/16 00:13:49;;;;;;;;;;;19.10;99.90;;;;;;4590171;19;20495;-32
2023/03/16 00:15:20;;;;;;;20.00;13.55;;;19.10;99.90;;;;;;4589506;19;19919;-31
2023/03/16 00:16:52;;;;;;;24.67;14.75;;;19.10;99.90;;;;;;4588774;19;20644;-31
2023/03/16 00:18:26;;;;;;;23.20;16.02;;;19.10;99.90;;;;;;4588472;19;20015;-32
2023/03/16 00:19:57;;;;;;;25.08;16.48;;;19.10;99.90;;;;;;4588222;19;20018;-32
2023/03/16 00:21:30;;;;;;;28.88;19.27;;;19.10;99.90;;;;;;4588941;19;20014;-31
2023/03/16 00:23:02;;;;;;;25.95;17.50;;;19.10;99.90;;;;;;4589459;19;20014;-30
2023/03/16 00:24:35;;;;;;;28.60;18.60;;;19.10;99.90;;;;;;4589495;19;20052;-32
2023/03/16 00:26:07;;;;;;;29.02;19.10;;;19.10;99.90;;;;;;4589230;19;20025;-30
2023/03/16 00:27:39;;;;;;;30.20;19.02;;;19.10;99.90;;;;;;4589296;19;20018;-33
2023/03/16 00:29:10;;;;;;;30.48;19.23;;;19.00;99.90;;;;;;4589416;19;20010;-30
2023/03/16 00:30:46;;;;;;;29.90;19.30;;;19.00;99.90;;;;;;4589476;19;20011;-32
2023/03/16 00:32:19;;;;;;;32.13;20.38;;;19.00;99.90;;;;;;4589306;19;20027;-31
2023/03/16 00:33:50;;;;;;;32.97;21.48;;;19.00;99.90;;;;;;4588981;19;20365;-34
2023/03/16 00:35:21;;;;;;;32.38;20.33;;;19.00;99.90;;;;;;4588450;19;20014;-29
2023/03/16 00:36:54;;;;;;;31.75;21.08;;;19.00;99.90;;;;;;4593195;19;20054;-33
2023/03/16 00:38:26;;;;;;;32.47;19.88;;;19.00;99.90;;;;;;4593495;19;20087;-35
2023/03/16 00:39:58;;;;;;;29.85;19.52;;;18.90;99.90;;;;;;4596722;19;20017;-30
2023/03/16 00:41:36;;;;;;;26.55;17.98;;;18.90;99.90;;;;;;4595634;19;20026;-33
2023/03/16 00:43:08;;;;;;;26.63;18.15;;;18.90;99.90;;;;;;4594139;19;20496;-33
2023/03/16 00:44:43;;;;;;;29.20;18.40;;;18.90;99.90;;;;;;4593837;19;20022;-31
2023/03/16 00:46:15;;;;;;;26.17;17.17;;;18.90;99.90;;;;;;4595561;19;20014;-30
2023/03/16 00:47:47;;;;;;;25.85;18.08;;;18.90;99.90;;;;;;4593983;19;20011;-31
2023/03/16 00:49:18;;;;;;;26.23;17.40;;;18.90;99.90;;;;;;4593209;19;20365;-29
2023/03/16 00:50:53;;;;;;;25.45;17.20;;;18.90;99.90;;;;;;4593799;19;20037;-32
2023/03/16 00:52:26;;;;;;;26.88;17.00;;;18.80;99.90;;;;;;4593750;19;20044;-33
2023/03/16 00:53:57;;;;;;;26.52;16.73;;;18.90;99.90;;;;;;4591387;19;20022;-30
2023/03/16 00:55:29;;;;;;;24.23;16.80;;;18.90;99.90;;;;;;4593158;19;20021;-37
2023/03/16 00:57:00;;;;;;;24.98;17.27;;;18.80;99.90;;;;;;4593681;19;20019;-33
2023/03/16 00:58:34;;;;;;;27.35;17.52;;;18.80;99.90;;;;;;4591036;19;20014;-29
2023/03/16 01:00:12;;;;;;;25.95;17.75;;;18.80;99.90;;;;;;4593074;19;20475;-30
2023/03/16 01:01:45;;;;;;;28.70;17.40;;;18.90;99.90;;;;;;4592398;19;20038;-31
2023/03/16 01:03:17;;;;;;;26.73;17.48;;;18.80;99.90;;;;;;4591833;19;20355;-30
2023/03/16 01:04:50;;;;;;;26.98;16.88;;;18.80;99.90;;;;;;4592504;19;20384;-30
2023/03/16 01:06:21;;;;;;;22.45;16.05;;;18.80;99.90;;;;;;4593327;19;20006;-34
2023/03/16 01:07:53;;;;;;;25.88;16.50;;;18.80;99.90;;;;;;4593357;19;20011;-30
2023/03/16 01:09:24;;;;;;;25.02;16.40;;;18.80;99.90;;;;;;4593121;19;20014;-31
2023/03/16 01:10:56;;;;;;;22.83;15.52;;;18.70;99.90;;;;;;4591844;19;20018;-30
2023/03/16 01:12:27;;;;;;;23.80;15.65;;;18.70;99.90;;;;;;4594233;19;20015;-29
2023/03/16 01:13:59;;;;;;;23.23;16.33;;;18.70;99.90;;;;;;4594313;19;20078;-30
2023/03/16 01:15:31;;;;;;;25.48;16.15;;;18.70;99.90;;;;;;4594651;19;20472;-30
2023/03/16 01:17:03;;;;;;;23.20;15.27;;;18.70;99.90;;;;;;4593643;19;20026;-32
2023/03/16 01:18:34;;;;;;;23.38;15.50;;;18.70;99.90;;;;;;4594512;19;20038;-32
2023/03/16 01:20:10;;;;;;;25.63;16.13;;;18.70;99.90;;;;;;4595768;19;20010;-32
2023/03/16 01:21:41;;;;;;;24.42;15.95;;;18.60;99.90;;;;;;4593199;19;20011;-30
2023/03/16 01:23:14;;;;;;;22.85;15.23;;;18.60;99.90;;;;;;4596102;19;20015;-30
2023/03/16 01:24:45;;;;;;;26.27;16.77;;;18.60;99.90;;;;;;4595275;19;20022;-32
2023/03/16 01:26:19;;;;;;;24.52;16.33;;;18.60;99.90;;;;;;4592572;19;20159;-38
2023/03/16 01:27:52;;;;;;;22.35;16.45;;;18.60;99.90;;;;;;4594061;19;20042;-30
2023/03/16 01:29:24;;;;;;;23.23;15.63;;;18.60;99.90;;;;;;4593186;19;20017;-34
2023/03/16 01:31:02;;;;;;;;;;;18.60;99.90;;;;;;4596543;19;20015;-33
2023/03/16 01:32:34;;;;;;;24.83;15.00;;;18.60;99.90;;;;;;4594653;19;19982;-30
2023/03/16 01:34:06;;;;;;;25.13;16.35;;;18.60;99.90;;;;;;4594520;19;20356;-30
2023/03/16 01:35:37;;;;;;;;;;;18.60;99.90;;;;;;4595627;19;20029;-34
2023/03/16 01:37:10;;;;;;;21.15;14.40;;;18.60;99.90;;;;;;4592060;19;19911;-33
2023/03/16 01:38:41;;;;;;;22.80;14.30;;;18.60;99.90;;;;;;4591667;19;20487;-33
2023/03/16 01:40:12;;;;;;;22.90;15.27;;;18.60;99.90;;;;;;4595628;19;20034;-33
2023/03/16 01:41:45;;;;;;;23.17;14.75;;;18.50;99.90;;;;;;4594616;19;20021;-29
2023/03/16 01:43:18;;;;;;;23.88;14.77;;;18.50;99.90;;;;;;4593226;19;20010;-30
2023/03/16 01:45:00;;;;;;;21.40;13.55;;;18.50;99.90;;;;;;4593783;19;20011;-29
2023/03/16 01:46:31;;;;;;;21.50;14.65;;;18.50;99.90;;;;;;4593257;19;20046;-33
2023/03/16 01:48:04;;;;;;;21.75;14.73;;;18.50;99.90;;;;;;4592176;19;20465;-34
2023/03/16 01:49:36;;;;;;;21.60;15.02;;;18.50;99.90;;;;;;4592191;19;20018;-29
2023/03/16 01:51:33;;;;;;;23.48;15.07;;;18.50;99.90;;;;;;4592311;19;20038;-33
2023/03/16 01:53:04;;;;;;;22.65;14.27;;;18.50;99.90;;;;;;4590742;19;20492;-30
2023/03/16 01:54:44;;;;;;;21.85;15.32;;;18.50;99.90;;;;;;4591648;19;20014;-31
2023/03/16 01:56:18;;;;;;;23.10;14.55;;;18.40;99.90;;;;;;4591553;19;20018;-30
2023/03/16 01:57:50;;;;;;;22.38;15.55;;;18.50;99.90;;;;;;4591314;19;20011;-34
2023/03/16 01:59:25;;;;;;;21.42;15.07;;;18.40;99.90;;;;;;4590996;19;20468;-32
2023/03/16 02:00:57;;;;;;;20.10;13.43;;;18.40;99.90;;;;;;4590929;19;20026;-31
2023/03/16 02:02:29;;;;;;;21.05;14.13;;;18.40;99.90;;;;;;4591439;19;20014;-29
2023/03/16 02:04:25;;;;;;;21.65;14.35;;;18.40;99.90;;;;;;4591124;19;20015;-36
2023/03/16 02:06:11;;;;;;;22.85;14.95;;;18.40;99.90;;;;;;4591165;19;20017;-30
2023/03/16 02:07:46;;;;;;;22.90;14.68;;;18.40;99.90;;;;;;4591113;19;20041;-31
2023/03/16 02:09:19;;;;;;;21.85;14.80;;;18.40;99.90;;;;;;4593057;19;20019;-30
2023/03/16 02:10:53;;;;;;;21.23;14.73;;;18.40;99.90;;;;;;4592803;19;20018;-31
2023/03/16 02:12:24;;;;;;;19.58;13.82;;;18.40;99.90;;;;;;4590975;19;20077;-29
2023/03/16 02:13:57;;;;;;;22.10;14.73;;;18.40;99.90;;;;;;4590972;19;20062;-29
2023/03/16 02:15:29;;;;;;;19.90;13.30;;;18.40;99.90;;;;;;4591074;19;20525;-30
2023/03/16 02:17:01;;;;;;;21.50;14.23;;;18.40;99.90;;;;;;4592611;19;20022;-34
2023/03/16 02:18:32;;;;;;;21.95;14.15;;;18.40;99.90;;;;;;4589822;19;20006;-30
2023/03/16 02:20:22;;;;;;;19.40;14.02;;;18.30;99.90;;;;;;4591889;19;20014;-30
2023/03/16 02:22:01;;;;;;;21.58;14.30;;;18.30;99.90;;;;;;4591617;19;20407;-30
2023/03/16 02:23:33;;;;;;;19.05;13.82;;;18.30;99.90;;;;;;4591024;19;20062;-32
2023/03/16 02:25:06;;;;;;;23.75;14.82;;;18.30;99.90;;;;;;4593180;19;20017;-30
2023/03/16 02:26:43;;;;;;;;;;;18.30;99.90;;;;;;4591467;19;20014;-33
2023/03/16 02:28:27;;;;;;;18.67;12.98;;;18.30;99.90;;;;;;4591016;19;19929;-32
2023/03/16 02:30:06;;;;;;;19.08;12.25;;;18.30;99.90;;;;;;4591981;19;20013;-34
2023/03/16 02:31:42;;;;;;;16.85;12.05;;;18.30;99.90;;;;;;4593794;19;20099;-30
2023/03/16 02:33:15;;;;;;;18.85;12.10;;;18.40;99.90;;;;;;4590284;19;20080;-31
2023/03/16 02:34:47;;;;;;;18.92;12.27;;;18.40;99.90;;;;;;4590555;19;20026;-34
2023/03/16 02:36:20;;;;;;;17.67;11.75;;;18.40;99.90;;;;;;4591150;19;20006;-30
2023/03/16 02:37:52;;;;;;;16.83;11.20;;;18.50;99.90;;;;;;4590277;19;20010;-29
2023/03/16 02:39:26;;;;;;;15.85;10.43;;;18.50;99.90;;;;;;4590962;19;20010;-30
2023/03/16 02:41:08;;;;;;;;;;;18.60;99.90;;;;;;4591126;19;20014;-29
2023/03/16 02:42:39;;;;;;;17.40;11.13;;;18.60;99.90;;;;;;4590589;19;19920;-37
2023/03/16 02:44:13;;;;;;;17.33;12.15;;;18.60;99.90;;;;;;4590256;19;20919;-32
2023/03/16 02:45:50;;;;;;;16.08;10.60;;;18.70;99.90;;;;;;4590890;19;20038;-30
2023/03/16 02:47:33;;;;;;;18.10;11.30;;;18.70;99.90;;;;;;4590261;19;20027;-31
2023/03/16 02:49:25;;;;;;;15.00;10.80;;;18.70;99.90;;;;;;4590021;19;20014;-29
2023/03/16 02:50:56;;;;;;;18.20;11.98;;;18.80;99.90;;;;;;4590645;19;20090;-29
2023/03/16 02:52:28;;;;;;;17.40;11.25;;;18.80;99.90;;;;;;4591318;19;20020;-31
2023/03/16 02:54:01;;;;;;;16.27;10.77;;;18.80;99.90;;;;;;4590091;19;20480;-30
2023/03/16 02:55:34;;;;;;;17.35;11.55;;;18.80;99.90;;;;;;4591159;19;20499;-30
2023/03/16 02:57:07;;;;;;;16.52;10.40;;;18.80;99.90;;;;;;4591270;19;20014;-31
2023/03/16 02:58:40;;;;;;;17.65;11.95;;;18.80;99.90;;;;;;4588925;19;20358;-31
2023/03/16 03:00:16;;;;;;;18.63;12.82;;;18.90;99.90;;;;;;4591082;19;20085;-30
2023/03/16 03:01:47;;;;;;;18.98;13.18;;;18.80;99.90;;;;;;4590945;19;20045;-30
2023/03/16 03:03:18;;;;;;;19.63;13.27;;;18.90;99.90;;;;;;4587326;19;20013;-32
2023/03/16 03:04:53;;;;;;;20.00;12.90;;;18.80;99.90;;;;;;4590145;19;20014;-34
2023/03/16 03:06:24;;;;;;;17.52;11.98;;;18.80;99.90;;;;;;4590851;19;20406;-30
2023/03/16 03:07:57;;;;;;;15.98;11.48;;;18.80;99.90;;;;;;4590974;19;20712;-30
2023/03/16 03:09:31;;;;;;;16.73;11.32;;;18.80;99.90;;;;;;4590864;19;20010;-31
2023/03/16 03:11:02;;;;;;;16.23;11.05;;;18.90;99.90;;;;;;4590804;19;20006;-31
2023/03/16 03:12:34;;;;;;;18.58;11.73;;;18.90;99.90;;;;;;4589664;19;20104;-32
2023/03/16 03:14:06;;;;;;;17.58;10.73;;;18.90;99.90;;;;;;4590150;19;20003;-32
2023/03/16 03:15:37;;;;;;;18.33;12.38;;;18.90;99.90;;;;;;4591054;19;20011;-30
2023/03/16 03:17:12;;;;;;;15.63;10.57;;;18.90;99.90;;;;;;4590667;19;20006;-31
2023/03/16 03:18:45;;;;;;;14.95;10.38;;;18.90;99.90;;;;;;4589785;19;20017;-35
2023/03/16 03:20:18;;;;;;;16.70;11.02;;;18.90;99.90;;;;;;4589518;19;20018;-34
2023/03/16 03:21:50;;;;;;;16.80;11.35;;;18.90;99.90;;;;;;4589936;19;20019;-29
2023/03/16 03:23:23;;;;;;;15.18;9.95;;;18.90;99.90;;;;;;4589459;19;20011;-29
2023/03/16 03:24:56;;;;;;;16.60;10.50;;;18.90;99.90;;;;;;4590231;19;20007;-33
2023/03/16 03:26:28;;;;;;;15.82;11.25;;;18.90;99.90;;;;;;4590689;19;20832;-36
2023/03/16 03:28:00;;;;;;;16.10;11.20;;;18.90;99.90;;;;;;4590455;19;20015;-36
2023/03/16 03:29:35;;;;;;;15.95;10.63;;;19.00;99.90;;;;;;4590251;19;20027;-32
2023/03/16 03:31:18;;;;;;;14.82;10.27;;;19.00;99.90;;;;;;4591433;19;20030;-29
2023/03/16 03:32:49;;;;;;;15.40;10.65;;;19.00;99.90;;;;;;4589002;19;20357;-32
2023/03/16 03:34:20;;;;;;;16.10;11.02;;;19.00;99.90;;;;;;4590318;19;20006;-32
2023/03/16 03:35:55;;;;;;;15.43;10.15;;;19.00;99.90;;;;;;4590147;19;20010;-32
2023/03/16 03:37:28;;;;;;;16.58;10.80;;;19.00;99.90;;;;;;4589229;19;20524;-32
2023/03/16 03:39:03;;;;;;;14.38;10.68;;;19.00;99.90;;;;;;4588688;19;20074;-35
2023/03/16 03:40:36;;;;;;;14.27;9.88;;;19.00;99.90;;;;;;4590444;19;20010;-34
2023/03/16 03:42:08;;;;;;;17.02;10.93;;;19.00;99.90;;;;;;4589798;19;20021;-29
2023/03/16 03:43:40;;;;;;;14.57;9.73;;;19.00;99.90;;;;;;4590148;19;20361;-30
2023/03/16 03:45:13;;;;;;;15.48;10.88;;;19.10;99.90;;;;;;4589877;19;20078;-30
2023/03/16 03:46:46;;;;;;;15.50;10.50;;;19.10;99.90;;;;;;4589947;19;20397;-30
2023/03/16 03:48:18;;;;;;;15.38;10.30;;;19.10;99.90;;;;;;4589826;19;20037;-32
2023/03/16 03:49:50;;;;;;;13.18;9.52;;;19.00;99.90;;;;;;4589867;19;20032;-32
2023/03/16 03:51:21;;;;;;;15.07;9.90;;;19.00;99.90;;;;;;4589925;19;20058;-30
2023/03/16 03:52:53;;;;;;;13.40;9.63;;;19.10;99.90;;;;;;4590023;19;20003;-34
2023/03/16 03:54:26;;;;;;;13.98;9.75;;;19.10;99.90;;;;;;4589591;19;20021;-31
2023/03/16 03:55:58;;;;;;;14.50;10.25;;;19.10;99.90;;;;;;4587915;19;20017;-32
2023/03/16 03:57:30;;;;;;;13.98;9.25;;;19.10;99.90;;;;;;4589244;19;20011;-32
2023/03/16 03:59:01;;;;;;;15.07;10.02;;;19.10;99.90;;;;;;4588859;19;20037;-34
2023/03/16 04:00:34;;;;;;;13.50;9.60;;;19.10;99.90;;;;;;4589770;19;20089;-30
2023/03/16 04:02:11;;;;;;;13.75;9.35;;;19.10;99.90;;;;;;4588495;19;20070;-30
2023/03/16 04:03:44;;;;;;;14.45;9.30;;;19.10;99.90;;;;;;4588786;19;20018;-31
2023/03/16 04:05:17;;;;;;;13.07;8.65;;;19.10;99.90;;;;;;4589678;19;20477;-33
2023/03/16 04:06:50;;;;;;;13.88;8.73;;;19.20;99.90;;;;;;4589720;19;20595;-33
2023/03/16 04:08:22;;;;;;;12.13;8.60;;;19.10;99.90;;;;;;4587312;19;20109;-32
2023/03/16 04:09:54;;;;;;;13.93;9.68;;;19.20;99.90;;;;;;4588252;19;20019;-33
2023/03/16 04:11:27;;;;;;;14.18;8.73;;;19.20;99.90;;;;;;4588238;19;20007;-34
2023/03/16 04:12:59;;;;;;;12.98;9.45;;;19.20;99.90;;;;;;4589689;19;20599;-34
2023/03/16 04:14:32;;;;;;;13.27;9.65;;;19.20;99.90;;;;;;4588491;19;20377;-30
2023/03/16 04:16:07;;;;;;;12.98;9.20;;;19.10;99.90;;;;;;4588487;19;20020;-32
2023/03/16 04:17:39;;;;;;;13.80;9.25;;;19.20;99.90;;;;;;4588217;19;20014;-30
2023/03/16 04:19:10;;;;;;;14.85;9.82;;;19.10;99.90;;;;;;4591141;19;20053;-33
2023/03/16 04:20:42;;;;;;;11.30;7.93;;;19.10;99.90;;;;;;4591612;19;20401;-32
2023/03/16 04:22:13;;;;;;;;;;;19.10;99.90;;;;;;4589736;19;20086;-30
2023/03/16 04:23:44;;;;;;;12.55;8.52;;;19.10;99.90;;;;;;4591214;19;20230;-30
2023/03/16 04:25:16;;;;;;;11.95;8.70;;;19.10;99.90;;;;;;4591706;19;20018;-31
2023/03/16 04:26:48;;;;;;;12.35;8.13;;;19.10;99.90;;;;;;4590862;19;20101;-28
2023/03/16 04:28:19;;;;;;;11.52;8.02;;;19.10;99.90;;;;;;4591661;19;20007;-31
2023/03/16 04:29:54;;;;;;;12.63;8.40;;;19.20;99.90;;;;;;4590125;19;20014;-31
2023/03/16 04:31:26;;;;;;;13.40;8.57;;;19.20;99.90;;;;;;4590591;19;20027;-34
2023/03/16 04:32:57;;;;;;;12.55;8.82;;;19.20;99.90;;;;;;4590933;19;20022;-32
2023/03/16 04:34:29;;;;;;;12.35;8.02;;;19.20;99.90;;;;;;4591129;19;20014;-33
2023/03/16 04:36:04;;;;;;;12.05;8.63;;;19.20;99.90;;;;;;4590060;19;20386;-31
2023/03/16 04:37:35;;;;;;;11.23;8.20;;;19.30;99.90;;;;;;4588881;19;20022;-30
2023/03/16 04:39:09;;;;;;;12.30;8.27;;;19.30;99.90;;;;;;4588950;19;20549;-33
2023/03/16 04:40:41;;;;;;;12.07;8.35;;;19.30;99.90;;;;;;4589768;19;20113;-32
2023/03/16 04:42:12;;;;;;;14.57;8.32;;;19.30;99.90;;;;;;4588876;19;20031;-29
2023/03/16 04:43:43;;;;;;;12.88;8.50;;;19.40;99.90;;;;;;4588944;19;20345;-31
2023/03/16 04:45:16;;;;;;;10.95;8.45;;;19.40;99.90;;;;;;4590785;19;20034;-31
2023/03/16 04:46:48;;;;;;;12.65;8.35;;;19.40;99.90;;;;;;4587774;19;20010;-28
2023/03/16 04:48:21;;;;;;;11.63;7.90;;;19.40;99.90;;;;;;4589579;19;20575;-28
2023/03/16 04:49:54;;;;;;;14.43;9.48;;;19.50;99.90;;;;;;4588781;19;20018;-31
2023/03/16 04:51:25;;;;;;;;;;;19.60;99.90;;;;;;4591229;19;20018;-31
2023/03/16 04:52:56;;;;;;;11.95;8.50;;;19.70;99.90;;;;;;4590944;19;19926;-33
2023/03/16 04:54:30;;;;;;;10.98;8.07;;;19.80;99.90;;;;;;4591027;19;20010;-31
2023/03/16 04:56:02;;;;;;;11.15;7.93;;;19.90;99.90;;;;;;4591534;19;20015;-33
2023/03/16 04:57:34;;;;;;;10.90;7.78;;;20.00;99.90;;;;;;4589225;19;20349;-31
2023/03/16 04:59:06;;;;;;;10.98;7.57;;;20.20;99.90;;;;;;4588702;19;20450;-31
2023/03/16 05:00:37;;;;;;;12.20;7.45;;;20.30;99.90;;;;;;4591546;19;20476;-32
2023/03/16 05:02:09;;;;;;;10.80;7.82;;;20.40;99.90;;;;;;4590196;19;20010;-32
2023/03/16 05:03:42;;;;;;;22.45;17.10;;;20.50;99.90;;;;;;4589921;19;20493;-30
2023/03/16 05:05:15;;;;;;;28.00;20.55;;;19.40;90.30;;;;;;4588997;19;20048;-29
2023/03/16 05:06:47;;;;;;;24.80;18.90;;;17.60;86.80;;;;;;4590181;19;20011;-29
2023/03/16 05:08:19;;;;;;;30.13;20.47;;;16.20;87.50;;;;;;4588471;19;20074;-30
2023/03/16 05:09:52;;;;;;;25.93;19.27;;;15.40;90.10;;;;;;4586217;19;20034;-29
2023/03/16 05:11:23;;;;;;;28.75;19.67;;;14.80;89.60;;;;;;4588209;19;20408;-33
2023/03/16 05:12:54;;;;;;;27.63;19.33;;;14.10;89.90;;;;;;4591062;19;20025;-29
2023/03/16 05:14:27;;;;;;;29.20;19.43;;;13.70;90.40;;;;;;4587324;19;20019;-30
2023/03/16 05:16:00;;;;;;;32.70;21.73;;;13.30;90.80;;;;;;4588010;19;20433;-30
2023/03/16 05:17:33;;;;;;;35.73;21.10;;;13.10;91.10;;;;;;4588080;19;20484;-31
2023/03/16 05:19:06;;;;;;;33.50;22.20;;;12.90;91.20;;;;;;4588202;19;20445;-31
2023/03/16 05:20:37;;;;;;;30.52;20.95;;;12.80;91.60;;;;;;4588353;19;20455;-30
2023/03/16 05:22:09;;;;;;;29.77;19.17;;;12.90;91.70;;;;;;4590657;19;20022;-30
2023/03/16 05:23:42;;;;;;;31.27;20.87;;;12.90;91.50;;;;;;4592801;19;20445;-29
2023/03/16 05:25:14;;;;;;;27.13;18.43;;;12.90;91.30;;;;;;4591785;19;20455;-30
2023/03/16 05:26:47;;;;;;;27.07;19.03;;;12.70;91.60;;;;;;4592631;19;20432;-31
2023/03/16 05:28:20;;;;;;;30.80;20.13;;;12.50;91.80;;;;;;4591090;19;21103;-29
2023/03/16 05:29:53;;;;;;;28.60;19.80;;;12.30;92.00;;;;;;4593147;19;20413;-31
2023/03/16 05:31:25;;;;;;;30.23;19.53;;;12.20;92.30;;;;;;4592679;19;20441;-30
2023/03/16 05:32:57;;;;;;;31.08;20.50;;;12.00;92.40;;;;;;4590516;19;20417;-31
2023/03/16 05:34:30;;;;;;;35.20;22.23;;;12.00;92.70;;;;;;4591956;19;20015;-31
2023/03/16 05:36:02;;;;;;;37.53;20.07;;;11.90;92.80;;;;;;4592505;19;20553;-33
2023/03/16 05:37:36;;;;;;;29.38;19.05;;;11.80;93.00;;;;;;4592794;19;20458;-30
2023/03/16 05:39:08;;;;;;;31.90;19.73;;;11.80;93.00;;;;;;4590496;19;20038;-29
2023/03/16 05:40:41;;;;;;;;;;;11.70;93.10;;;;;;4592639;19;20440;-30
2023/03/16 05:42:12;;;;;;;31.27;19.33;;;11.70;93.40;;;;;;4591898;19;19918;-29
2023/03/16 05:43:44;;;;;;;30.17;19.15;;;11.70;93.40;;;;;;4594457;19;20603;-27
2023/03/16 05:45:16;;;;;;;28.63;16.80;;;11.70;93.60;;;;;;4594320;19;20476;-32
2023/03/16 05:46:48;;;;;;;24.07;15.23;;;11.70;93.80;;;;;;4593177;19;20464;-27
2023/03/16 05:48:21;;;;;;;27.17;17.43;;;11.70;93.90;;;;;;4591410;19;20481;-33
2023/03/16 05:49:52;;;;;;;27.50;17.63;;;11.60;94.00;;;;;;4592428;19;20429;-27
2023/03/16 05:51:25;;;;;;;24.70;16.10;;;11.70;94.00;;;;;;4591483;19;20559;-28
2023/03/16 05:52:56;;;;;;;27.52;17.27;;;11.60;94.10;;;;;;4593316;19;20495;-29
2023/03/16 05:54:29;;;;;;;28.10;18.00;;;11.60;94.20;;;;;;4595396;19;20010;-32
2023/03/16 05:56:00;;;;;;;22.67;15.57;;;11.60;94.30;;;;;;4592505;19;20899;-31
2023/03/16 05:57:35;;;;;;;26.27;18.07;;;11.70;94.40;;;;;;4594726;19;20406;-30
2023/03/16 05:59:07;;;;;;;28.63;17.53;;;11.70;94.60;;;;;;4591340;19;20525;-31
2023/03/16 06:00:38;;;;;;;23.73;14.98;;;11.70;94.50;;;;;;4593793;19;20461;-30
2023/03/16 06:02:11;;;;;;;25.70;15.88;;;11.70;94.50;;;;;;4594793;19;20015;-30
2023/03/16 06:03:42;;;;;;;24.30;14.30;;;11.70;94.50;;;;;;4590608;19;20536;-30
2023/03/16 06:05:16;;;;;;;25.60;14.65;;;11.70;94.60;;;;;;4593175;19;21049;-31
2023/03/16 06:06:48;;;;;;;26.23;15.30;;;11.70;94.50;;;;;;4589701;19;20019;-30
2023/03/16 06:08:19;;;;;;;23.08;14.30;;;11.70;94.50;;;;;;4590114;19;20461;-29
2023/03/16 06:09:51;;;;;;;22.75;13.93;;;11.70;94.50;;;;;;4591365;19;20046;-30
2023/03/16 06:11:23;;;;;;;23.60;14.93;;;11.70;94.60;;;;;;4591087;19;20349;-27
2023/03/16 06:12:55;;;;;;;23.07;13.00;;;11.70;94.70;;;;;;4589502;19;20050;-27
2023/03/16 06:14:29;;;;;;;23.43;14.20;;;11.60;94.80;;;;;;4589923;19;20815;-33
2023/03/16 06:16:01;;;;;;;20.30;13.77;;;11.60;94.80;;;;;;4591947;19;21112;-31
2023/03/16 06:17:33;;;;;;;;;;;11.60;94.90;;;;;;4593721;19;20473;-31
2023/03/16 06:19:05;;;;;;;22.95;12.02;;;11.60;95.00;;;;;;4589911;19;19918;-32
2023/03/16 06:20:36;;;;;;;;;;;11.60;95.00;;;;;;4590878;19;20059;-33
2023/03/16 06:22:09;;;;;;;22.43;13.50;;;11.70;95.20;;;;;;4591003;19;19926;-29
2023/03/16 06:23:41;;;;;;;25.23;13.47;;;11.60;95.00;;;;;;4590394;19;20465;-34
2023/03/16 06:25:13;;;;;;;21.10;13.27;;;11.60;95.10;;;;;;4592002;19;20469;-29
2023/03/16 06:26:50;;;;;;;22.07;13.03;;;11.60;95.10;;;;;;4589963;19;20022;-31
2023/03/16 06:28:23;;;;;;;21.90;13.97;;;11.60;95.20;;;;;;4586891;19;21078;-31
2023/03/16 06:29:56;;;;;;;20.17;11.83;;;11.60;95.30;;;;;;4591867;19;21147;-30
2023/03/16 06:31:27;;;;;;;29.30;15.73;;;11.60;95.30;;;;;;4592029;19;21025;-32
2023/03/16 06:33:01;;;;;;;32.60;17.23;;;11.60;95.30;;;;;;4591325;19;20495;-34
2023/03/16 06:34:33;;;;;;;53.90;29.50;;;11.60;95.40;;;;;;4590853;19;20453;-31
2023/03/16 06:36:04;;;;;;;;;;;11.60;95.40;;;;;;4592392;19;20449;-31
2023/03/16 06:37:35;;;;;;;79.67;46.73;;;11.60;95.60;;;;;;4590517;19;20007;-31
2023/03/16 06:39:08;;;;;;;65.18;40.38;;;11.70;95.60;;;;;;4586955;19;21170;-31
2023/03/16 06:40:40;;;;;;;51.50;34.00;;;11.60;95.60;;;;;;4590252;19;20747;-30
2023/03/16 06:42:12;;;;;;;38.33;24.42;;;11.70;95.70;;;;;;4589710;19;20907;-27
2023/03/16 06:43:43;;;;;;;30.70;19.80;;;11.70;95.70;;;;;;4589870;19;20006;-31
2023/03/16 06:45:16;;;;;;;29.20;18.80;;;11.60;95.80;;;;;;4589685;19;20305;-30
2023/03/16 06:46:47;;;;;;;42.73;26.83;;;11.70;95.80;;;;;;4592059;19;20460;-29
2023/03/16 06:48:18;;;;;;;65.28;43.50;;;11.70;95.90;;;;;;4590244;19;20445;-31
2023/03/16 06:49:50;;;;;;;52.25;38.63;;;11.60;95.90;;;;;;4590921;19;20141;-30
2023/03/16 06:51:21;;;;;;;44.20;31.10;;;11.60;96.00;;;;;;4591918;19;20388;-30
2023/03/16 06:52:57;;;;;;;40.47;27.77;;;11.60;96.00;;;;;;4590717;19;20078;-30
2023/03/16 06:54:32;;;;;;;35.30;21.93;;;11.60;96.00;;;;;;4593434;19;20866;-32
2023/03/16 06:56:04;;;;;;;36.70;22.80;;;11.60;96.10;;;;;;4591618;19;20441;-32
2023/03/16 06:57:35;;;;;;;30.08;19.17;;;11.80;96.50;;;;;;4589632;19;20429;-35
2023/03/16 06:59:07;;;;;;;24.00;16.33;;;12.00;96.00;;;;;;4589819;19;20537;-32
2023/03/16 07:00:38;;;;;;;;;;;11.90;95.90;;;;;;4591932;19;20022;-31
2023/03/16 07:02:12;;;;;;;36.57;25.33;;;11.80;96.00;;;;;;4590767;19;19942;-31
2023/03/16 07:03:58;;;;;;;19.43;12.40;;;11.80;96.10;;;;;;4589313;19;21083;-30
2023/03/16 07:05:54;;;;;;;16.90;11.00;;;11.60;96.10;;;;;;4591365;19;20526;-31
2023/03/16 07:07:50;;;;;;;20.73;11.77;;;11.50;96.30;;;;;;4590651;19;21050;-29
2023/03/16 07:09:32;;;;;;;19.33;11.53;;;11.50;96.40;;;;;;4592978;19;20452;-29
2023/03/16 07:11:05;;;;;;;16.77;9.80;;;11.50;96.50;;;;;;4590354;19;20490;-33
2023/03/16 07:12:36;;;;;;;15.98;9.75;;;11.50;96.50;;;;;;4590348;19;20449;-29
2023/03/16 07:14:10;;;;;;;18.67;10.97;;;11.50;96.50;;;;;;4589268;19;20014;-32
2023/03/16 07:15:43;;;;;;;;;;;11.50;96.60;;;;;;4590451;19;20534;-32
2023/03/16 07:17:14;;;;;;;20.07;12.10;;;11.50;96.70;;;;;;4590276;19;19935;-29
2023/03/16 07:18:51;;;;;;;20.40;12.47;;;11.50;96.60;;;;;;4589776;19;20587;-29
2023/03/16 07:20:25;;;;;;;26.43;16.80;;;11.50;96.70;;;;;;4590336;19;20441;-30
2023/03/16 07:21:57;;;;;;;22.23;13.07;;;11.50;96.80;;;;;;4590486;19;20449;-29
2023/03/16 07:23:29;;;;;;;20.93;11.67;;;11.40;96.70;;;;;;4590487;19;20781;-29
2023/03/16 07:25:03;;;;;;;17.43;10.43;;;11.40;96.70;;;;;;4589111;19;20797;-31
2023/03/16 07:26:34;;;;;;;16.77;9.07;;;11.60;96.70;;;;;;4589032;19;20487;-29
2023/03/16 07:28:06;;;;;;;18.83;10.47;;;11.60;96.60;;;;;;4586965;19;20552;-32
2023/03/16 07:29:38;;;;;;;15.63;9.02;;;11.60;96.70;;;;;;4591842;19;20472;-29
2023/03/16 07:31:13;;;;;;;17.27;9.87;;;11.60;96.60;;;;;;4590537;19;20018;-31
2023/03/16 07:32:46;;;;;;;17.47;9.53;;;11.60;96.60;;;;;;4591690;19;20484;-30
2023/03/16 07:34:17;;;;;;;17.85;9.80;;;11.50;96.70;;;;;;4591549;19;20495;-31
2023/03/16 07:35:51;;;;;;;15.68;9.80;;;11.40;96.80;;;;;;4593071;19;20022;-31
2023/03/16 07:37:26;;;;;;;23.13;11.53;;;11.50;96.80;;;;;;4592813;19;20015;-29
2023/03/16 07:39:00;;;;;;;22.00;10.20;;;11.50;96.90;;;;;;4588287;19;20511;-31
2023/03/16 07:40:41;;;;;;;23.43;11.27;;;11.50;96.90;;;;;;4588842;19;20820;-31
2023/03/16 07:42:14;;;;;;;20.03;11.97;;;11.50;96.90;;;;;;4589013;19;20501;-30
2023/03/16 07:43:48;;;;;;;24.73;14.33;;;11.40;96.90;;;;;;4588712;19;20437;-30
2023/03/16 07:45:31;;;;;;;22.63;11.90;;;11.50;97.00;;;;;;4589162;19;20460;-32
2023/03/16 07:47:05;;;;;;;20.37;12.20;;;11.50;97.00;;;;;;4589730;19;20765;-30
2023/03/16 07:48:47;;;;;;;16.13;10.60;;;11.50;97.10;;;;;;4589193;19;20985;-29
2023/03/16 07:50:21;;;;;;;20.03;11.33;;;11.50;97.20;;;;;;4589993;19;20457;-30
2023/03/16 07:52:01;;;;;;;20.57;11.30;;;11.50;97.20;;;;;;4591451;19;20485;-29
2023/03/16 07:53:36;;;;;;;17.43;9.37;;;11.50;97.20;;;;;;4589814;19;20528;-31
2023/03/16 07:55:13;;;;;;;23.17;11.27;;;11.50;97.10;;;;;;4590400;19;20485;-30
2023/03/16 07:56:47;;;;;;;22.03;12.70;;;11.50;97.10;;;;;;4590297;19;20501;-28
2023/03/16 07:58:20;;;;;;;20.57;12.00;;;11.50;97.10;;;;;;4587129;19;20496;-30